Time;durP1;ratioP1;P1;durP2;ratioP2;P2;SDS_P1;SDS_P2;PMS_P1;PMS_P2;Temp;Humidity;BMP_temperature;BMP_pressure;BME280_temperature;BME280_humidity;BME280_pressure;Samples;Min_cycle;Max_cycle;Signal;HPM_P1;HPM_P2
2023/01/15 00:02:06;;;;;;;3.40;0.47;;;6.00;99.90;;;;;;5120027;27;20049;-84
2023/01/15 00:04:32;;;;;;;8.13;0.60;;;6.30;99.90;;;;;;5120535;27;20037;-82
2023/01/15 00:06:58;;;;;;;2.20;0.60;;;6.00;99.90;;;;;;5051204;28;20132;-84
2023/01/15 00:09:23;;;;;;;4.25;0.50;;;6.20;99.90;;;;;;5051084;28;20422;-84
2023/01/15 00:11:49;;;;;;;6.32;0.70;;;6.10;99.90;;;;;;5119672;27;20089;-84
2023/01/15 00:14:15;;;;;;;1.83;0.50;;;6.00;99.90;;;;;;5051074;28;20049;-84
2023/01/15 00:16:41;;;;;;;2.22;0.50;;;6.00;99.90;;;;;;5050654;28;20060;-85
2023/01/15 00:19:10;;;;;;;3.35;0.43;;;6.20;99.90;;;;;;5120459;27;20041;-87
2023/01/15 00:21:37;;;;;;;3.65;0.60;;;6.00;99.90;;;;;;5050882;28;20041;-83
2023/01/15 00:29:48;;;;;;;5.90;0.95;;;6.00;99.90;;;;;;5051764;28;20536;-85
2023/01/15 00:32:14;;;;;;;4.35;0.60;;;6.00;99.90;;;;;;5098618;27;20084;-85
2023/01/15 00:34:39;;;;;;;2.95;0.50;;;6.00;99.90;;;;;;5102552;28;20075;-85
2023/01/15 00:37:05;;;;;;;4.20;1.33;;;6.10;99.90;;;;;;5050619;28;20080;-85
2023/01/15 00:39:32;;;;;;;5.72;0.70;;;6.00;99.90;;;;;;5119570;28;20048;-82
2023/01/15 00:41:57;;;;;;;2.15;0.55;;;6.00;99.90;;;;;;5050561;28;20359;-85
2023/01/15 00:44:23;;;;;;;4.88;0.60;;;6.10;99.90;;;;;;5050735;27;20044;-85
2023/01/15 00:46:49;;;;;;;4.07;0.52;;;6.10;99.90;;;;;;5119491;28;20097;-85
2023/01/15 00:49:16;;;;;;;5.25;0.60;;;6.10;99.90;;;;;;5102375;28;20037;-85
2023/01/15 00:51:42;;;;;;;6.32;0.95;;;6.20;99.90;;;;;;5119342;28;20485;-85
2023/01/15 00:54:08;;;;;;;6.70;0.60;;;6.00;99.90;;;;;;5050355;28;20045;-84
2023/01/15 00:56:34;;;;;;;4.88;0.70;;;6.00;99.90;;;;;;5050381;28;20041;-84
2023/01/15 00:59:04;;;;;;;5.72;0.80;;;6.30;99.90;;;;;;5049979;28;20041;-81
2023/01/15 01:01:30;;;;;;;7.60;0.70;;;6.10;99.90;;;;;;5050824;28;20089;-85
2023/01/15 01:03:56;;;;;;;5.10;0.50;;;6.10;99.90;;;;;;5119390;28;20049;-84
2023/01/15 01:06:21;;;;;;;4.35;0.57;;;6.60;99.90;;;;;;5050250;28;20116;-84
2023/01/15 01:08:47;;;;;;;4.55;0.65;;;6.10;99.90;;;;;;5051932;28;20130;-86
2023/01/15 01:11:16;;;;;;;8.35;1.33;;;6.00;99.90;;;;;;5053725;28;20470;-83
2023/01/15 01:13:42;;;;;;;7.05;0.85;;;6.10;99.90;;;;;;5053837;27;20124;-85
2023/01/15 01:16:32;;;;;;;4.95;0.47;;;6.10;99.90;;;;;;5124100;27;20067;-85
2023/01/15 01:19:00;;;;;;;4.93;0.40;;;6.00;99.90;;;;;;5053601;28;20037;-86
2023/01/15 01:21:26;;;;;;;6.35;0.60;;;6.20;99.90;;;;;;5123255;27;20086;-85
2023/01/15 01:23:52;;;;;;;4.60;0.60;;;6.10;99.90;;;;;;5123513;27;20128;-85
2023/01/15 01:26:18;;;;;;;5.43;0.65;;;6.20;99.90;;;;;;5123059;27;20193;-85
2023/01/15 01:28:49;;;;;;;5.32;0.60;;;6.20;99.90;;;;;;5053722;27;20052;-85
2023/01/15 01:31:14;;;;;;;5.65;0.70;;;6.10;99.90;;;;;;5123907;27;20037;-84
2023/01/15 01:33:40;;;;;;;4.70;1.10;;;6.20;99.90;;;;;;5053025;28;20143;-87
2023/01/15 01:36:06;;;;;;;4.38;1.05;;;6.20;99.90;;;;;;5105955;28;20382;-83
2023/01/15 01:38:32;;;;;;;7.03;0.63;;;6.10;99.90;;;;;;5053437;27;20047;-86
2023/01/15 01:40:58;;;;;;;7.78;0.80;;;6.10;99.90;;;;;;5106300;28;20037;-83
2023/01/15 01:43:26;;;;;;;7.20;0.77;;;6.10;99.90;;;;;;5053250;28;20087;-84
2023/01/15 01:45:52;;;;;;;6.97;0.80;;;6.50;99.90;;;;;;5053212;28;20087;-85
2023/01/15 01:48:20;;;;;;;3.72;0.55;;;6.10;99.90;;;;;;5053243;28;20076;-84
2023/01/15 01:50:48;;;;;;;3.80;0.60;;;6.10;99.90;;;;;;5053303;28;20457;-84
2023/01/15 01:53:20;;;;;;;5.85;0.77;;;6.40;99.90;;;;;;5122884;27;20049;-85
2023/01/15 01:55:48;;;;;;;3.05;0.60;;;6.20;99.90;;;;;;5053723;28;20037;-84
2023/01/15 01:58:14;;;;;;;7.85;0.70;;;6.10;99.90;;;;;;5053122;28;20078;-84
2023/01/15 02:00:43;;;;;;;4.35;0.60;;;6.10;99.90;;;;;;5053027;28;20033;-85
2023/01/15 02:03:10;;;;;;;4.30;0.50;;;6.80;99.90;;;;;;5053515;28;20421;-84
2023/01/15 02:05:46;;;;;;;5.70;1.40;;;6.10;99.90;;;;;;5052907;28;20044;-84
2023/01/15 02:08:12;;;;;;;4.10;0.68;;;6.10;99.90;;;;;;5053767;28;20037;-79
2023/01/15 02:10:38;;;;;;;5.45;0.80;;;6.20;99.90;;;;;;5053025;27;20173;-83
2023/01/15 02:13:12;;;;;;;5.43;0.93;;;6.10;99.90;;;;;;5052867;28;20109;-81
2023/01/15 02:15:49;;;;;;;6.97;0.88;;;6.20;99.90;;;;;;5052937;28;20049;-79
2023/01/15 02:18:26;;;;;;;5.47;0.82;;;6.20;99.90;;;;;;5122586;27;20045;-82
2023/01/15 02:21:29;;;;;;;4.00;0.80;;;6.10;99.90;;;;;;5121723;27;20072;-81
2023/01/15 02:24:13;;;;;;;6.15;0.70;;;6.20;99.90;;;;;;5122209;27;20032;-81
2023/01/15 02:26:55;;;;;;;7.90;0.77;;;6.10;99.90;;;;;;5052618;28;20045;-80
2023/01/15 02:29:33;;;;;;;9.82;0.88;;;6.40;99.90;;;;;;5053141;28;20370;-81
2023/01/15 02:32:02;;;;;;;3.95;0.70;;;6.40;99.90;;;;;;5122317;27;20385;-80
2023/01/15 02:34:34;;;;;;;8.48;1.20;;;6.10;99.90;;;;;;5121821;27;20061;-81
2023/01/15 02:37:05;;;;;;;7.10;0.70;;;6.20;99.90;;;;;;5122542;27;20117;-81
2023/01/15 02:39:33;;;;;;;4.15;0.70;;;6.20;99.90;;;;;;5123099;27;20077;-80
2023/01/15 02:42:02;;;;;;;5.22;1.38;;;6.40;99.90;;;;;;5122112;27;20049;-81
2023/01/15 02:44:31;;;;;;;5.97;0.88;;;6.30;99.90;;;;;;5052409;28;20070;-82
2023/01/15 02:46:58;;;;;;;7.03;1.00;;;6.20;99.90;;;;;;5052458;28;20501;-82
2023/01/15 02:49:24;;;;;;;4.88;0.75;;;6.30;99.90;;;;;;5052192;28;20120;-82
2023/01/15 02:51:54;;;;;;;4.93;0.68;;;6.20;99.90;;;;;;5051945;28;20474;-83
2023/01/15 02:54:22;;;;;;;6.55;1.52;;;6.30;99.90;;;;;;5052043;28;20045;-76
2023/01/15 02:56:50;;;;;;;9.27;0.80;;;6.20;99.90;;;;;;5121047;27;20060;-79
2023/01/15 02:59:28;;;;;;;5.13;0.70;;;6.30;99.90;;;;;;5120809;27;20501;-81
2023/01/15 03:01:59;;;;;;;6.18;0.68;;;6.20;99.90;;;;;;5052135;28;20049;-74
2023/01/15 03:04:33;;;;;;;9.48;0.70;;;6.10;99.90;;;;;;5120981;27;20041;-79
2023/01/15 03:07:13;;;;;;;10.95;0.80;;;6.30;99.90;;;;;;5121409;27;20053;-81
2023/01/15 03:09:39;;;;;;;6.97;0.80;;;6.30;99.90;;;;;;5052125;27;20137;-81
2023/01/15 03:12:21;;;;;;;4.35;0.70;;;6.50;99.90;;;;;;5052054;28;20080;-79
2023/01/15 03:15:08;;;;;;;8.45;1.17;;;6.20;99.90;;;;;;5052560;27;20462;-84
2023/01/15 03:17:52;;;;;;;2.67;0.60;;;6.20;99.90;;;;;;5122336;27;20048;-82
2023/01/15 03:20:28;;;;;;;7.32;1.00;;;6.50;99.90;;;;;;5121649;27;20041;-82
2023/01/15 03:23:01;;;;;;;7.57;1.42;;;6.50;99.90;;;;;;5051679;28;20044;-82
2023/01/15 03:25:33;;;;;;;6.82;1.25;;;6.30;99.90;;;;;;5051933;27;20055;-85
2023/01/15 03:28:01;;;;;;;4.82;0.80;;;6.40;99.90;;;;;;5051939;27;20052;-84
2023/01/15 03:30:28;;;;;;;9.63;1.38;;;6.20;99.90;;;;;;5051604;28;20033;-85
2023/01/15 03:32:54;;;;;;;6.97;1.60;;;6.40;99.90;;;;;;5051172;28;20474;-84
2023/01/15 03:35:43;;;;;;;4.50;0.65;;;6.20;99.90;;;;;;5052154;28;20055;-83
2023/01/15 03:38:11;;;;;;;10.38;1.30;;;6.40;99.90;;;;;;5051429;28;20049;-83
2023/01/15 03:40:42;;;;;;;6.82;1.05;;;6.20;99.90;;;;;;5052195;28;20336;-81
2023/01/15 03:46:02;;;;;;;6.30;0.80;;;6.30;99.90;;;;;;5051577;27;20093;-81
2023/01/15 03:48:38;;;;;;;6.47;0.77;;;6.20;99.90;;;;;;5117637;27;20049;-82
2023/01/15 03:51:11;;;;;;;5.85;0.75;;;6.10;99.90;;;;;;5051627;28;20347;-82
2023/01/15 03:53:43;;;;;;;6.30;0.60;;;6.10;99.90;;;;;;5051514;28;20384;-80
2023/01/15 03:56:34;;;;;;;4.38;0.60;;;6.20;99.90;;;;;;5051799;28;20130;-76
2023/01/15 03:59:06;;;;;;;9.32;1.70;;;6.20;99.90;;;;;;5120618;27;20093;-78
2023/01/15 04:01:40;;;;;;;5.45;0.60;;;6.20;99.90;;;;;;5120333;27;20093;-83
2023/01/15 04:04:06;;;;;;;5.30;0.82;;;6.20;99.90;;;;;;5119791;27;20033;-81
2023/01/15 04:06:37;;;;;;;9.75;0.93;;;6.10;99.90;;;;;;5120086;27;20381;-77
2023/01/15 04:09:07;;;;;;;6.80;0.77;;;6.30;99.90;;;;;;5051829;28;20044;-79
2023/01/15 04:11:33;;;;;;;6.32;0.95;;;6.40;99.90;;;;;;5051493;28;20040;-78
2023/01/15 04:13:59;;;;;;;6.35;0.88;;;6.10;99.90;;;;;;5050981;28;20124;-79
2023/01/15 04:16:27;;;;;;;2.38;0.60;;;6.10;99.90;;;;;;5119988;27;20045;-79
2023/01/15 04:18:53;;;;;;;4.80;0.90;;;6.10;99.90;;;;;;5120308;27;20033;-80
2023/01/15 04:21:19;;;;;;;6.13;0.90;;;6.10;99.90;;;;;;5050702;28;20523;-86
2023/01/15 04:23:45;;;;;;;8.25;1.27;;;6.20;99.90;;;;;;5119377;27;20045;-78
2023/01/15 04:26:11;;;;;;;6.88;0.65;;;6.20;99.90;;;;;;5050721;28;20107;-81
2023/01/15 04:28:37;;;;;;;5.40;0.70;;;6.10;99.90;;;;;;5050691;28;20045;-82
2023/01/15 04:31:03;;;;;;;7.13;0.82;;;6.40;99.90;;;;;;5050662;28;20041;-78
2023/01/15 04:33:28;;;;;;;5.57;0.80;;;6.10;99.90;;;;;;5102744;28;20080;-82
2023/01/15 04:35:54;;;;;;;9.38;0.98;;;6.10;99.90;;;;;;5050701;28;20053;-81
2023/01/15 04:38:20;;;;;;;4.40;0.80;;;6.20;99.90;;;;;;5051154;28;20041;-81
2023/01/15 04:46:14;;;;;;;8.40;0.70;;;6.10;99.90;;;;;;5120280;28;20454;-80
2023/01/15 04:48:40;;;;;;;9.38;0.80;;;6.20;99.90;;;;;;5050643;27;20065;-81
2023/01/15 04:51:06;;;;;;;3.92;0.82;;;6.00;99.90;;;;;;5050474;28;20037;-80
2023/01/15 04:53:33;;;;;;;7.05;0.90;;;6.00;99.90;;;;;;5050329;28;20045;-80
2023/01/15 04:56:00;;;;;;;7.90;0.88;;;6.00;99.90;;;;;;5050312;28;20048;-80
2023/01/15 04:58:26;;;;;;;6.18;0.90;;;6.00;99.90;;;;;;5103098;28;20049;-80
2023/01/15 05:00:52;;;;;;;4.85;0.70;;;6.00;99.90;;;;;;5118908;28;20044;-82
2023/01/15 05:03:17;;;;;;;4.82;0.88;;;6.00;99.90;;;;;;5119587;28;20037;-81
2023/01/15 05:05:43;;;;;;;7.63;0.90;;;6.20;99.90;;;;;;5085538;28;20037;-82
2023/01/15 05:08:09;;;;;;;4.55;0.63;;;6.00;99.90;;;;;;5050865;27;20091;-83
2023/01/15 05:10:34;;;;;;;5.60;0.82;;;6.00;99.90;;;;;;5119495;28;20048;-82
2023/01/15 05:13:00;;;;;;;10.05;0.75;;;6.10;99.90;;;;;;5102290;28;20420;-84
2023/01/15 05:15:26;;;;;;;7.35;0.70;;;5.90;99.90;;;;;;5084913;28;20043;-84
2023/01/15 05:17:51;;;;;;;4.05;0.60;;;6.00;99.90;;;;;;5050053;28;20097;-83
2023/01/15 05:20:17;;;;;;;7.10;1.17;;;6.00;99.90;;;;;;5050918;27;20037;-81
2023/01/15 05:22:43;;;;;;;6.38;0.60;;;5.90;99.90;;;;;;5102013;28;20033;-84
2023/01/15 05:25:09;;;;;;;6.38;0.90;;;5.90;99.90;;;;;;5118621;28;20087;-84
2023/01/15 05:27:34;;;;;;;5.60;0.90;;;5.90;99.90;;;;;;5050008;28;20439;-84
2023/01/15 05:30:00;;;;;;;8.55;0.80;;;6.00;99.90;;;;;;5050003;28;20044;-84
2023/01/15 05:32:26;;;;;;;5.55;0.68;;;6.00;99.90;;;;;;5049868;27;20037;-83
2023/01/15 05:34:51;;;;;;;9.25;0.82;;;5.90;99.90;;;;;;5118864;28;20140;-84
2023/01/15 05:37:17;;;;;;;9.85;0.82;;;6.20;99.90;;;;;;5118950;28;20342;-85
2023/01/15 05:39:43;;;;;;;7.47;1.00;;;5.80;99.90;;;;;;5049989;27;20040;-83
2023/01/15 05:42:08;;;;;;;5.35;0.70;;;5.10;99.90;;;;;;5119207;28;20053;-83
2023/01/15 05:44:34;;;;;;;5.03;0.60;;;5.70;99.90;;;;;;5049797;28;20051;-83
2023/01/15 05:47:06;;;;;;;4.00;0.50;;;6.30;99.90;;;;;;5050082;28;20125;-82
2023/01/15 05:49:32;;;;;;;6.38;1.17;;;5.70;99.90;;;;;;5050080;28;20045;-82
2023/01/15 05:52:00;;;;;;;5.00;0.70;;;5.70;99.90;;;;;;5049700;28;20081;-83
2023/01/15 05:54:33;;;;;;;5.80;0.60;;;5.70;99.90;;;;;;5049942;28;20037;-83
2023/01/15 05:57:00;;;;;;;4.75;0.73;;;5.70;99.90;;;;;;5053399;28;20487;-82
2023/01/15 05:59:27;;;;;;;4.75;1.00;;;5.70;99.90;;;;;;5122479;27;20052;-82
2023/01/15 06:01:53;;;;;;;6.75;0.70;;;5.60;99.90;;;;;;5053520;28;20041;-85
2023/01/15 06:04:20;;;;;;;4.38;0.90;;;5.70;99.90;;;;;;5053714;28;20047;-84
2023/01/15 06:06:47;;;;;;;8.23;1.10;;;5.60;99.90;;;;;;5122511;27;20045;-81
2023/01/15 06:09:13;;;;;;;4.90;0.70;;;5.50;99.90;;;;;;5052971;28;20090;-85
2023/01/15 06:11:40;;;;;;;5.60;0.80;;;5.70;99.90;;;;;;5122168;27;20477;-83
2023/01/15 06:14:06;;;;;;;5.00;0.63;;;5.70;99.90;;;;;;5053566;28;20377;-83
2023/01/15 06:16:32;;;;;;;5.40;0.88;;;6.10;99.90;;;;;;5053278;28;20128;-82
2023/01/15 06:19:04;;;;;;;5.05;0.88;;;5.80;99.90;;;;;;5053655;27;20551;-82
2023/01/15 06:21:31;;;;;;;8.82;0.70;;;5.60;99.90;;;;;;5121641;27;20047;-80
2023/01/15 06:23:57;;;;;;;9.23;1.10;;;5.60;99.90;;;;;;5052615;28;20051;-84
2023/01/15 06:26:23;;;;;;;6.57;0.80;;;5.60;99.90;;;;;;5052522;28;20119;-84
2023/01/15 06:28:50;;;;;;;5.70;0.90;;;5.50;99.90;;;;;;5052998;28;20045;-83
2023/01/15 06:31:18;;;;;;;3.97;0.50;;;5.50;99.90;;;;;;5052618;28;20041;-83
2023/01/15 06:33:44;;;;;;;8.85;0.90;;;5.80;99.90;;;;;;5052947;28;20106;-83
2023/01/15 06:36:12;;;;;;;4.95;0.75;;;6.00;99.90;;;;;;5052535;28;20089;-81
2023/01/15 06:38:38;;;;;;;5.82;1.30;;;5.70;99.90;;;;;;5122507;27;20437;-83
2023/01/15 06:49:27;;;;;;;8.50;0.90;;;5.50;99.90;;;;;;5122010;27;20048;-83
2023/01/15 06:51:53;;;;;;;4.65;0.70;;;5.50;99.90;;;;;;5052187;28;20037;-83
2023/01/15 06:54:19;;;;;;;7.75;1.00;;;5.40;99.90;;;;;;5052308;27;20120;-84
2023/01/15 06:56:44;;;;;;;3.03;0.68;;;5.40;99.90;;;;;;5104775;28;20105;-83
2023/01/15 06:59:10;;;;;;;5.60;0.68;;;5.30;99.90;;;;;;5052156;28;20469;-85
2023/01/15 07:01:35;;;;;;;6.82;0.90;;;5.50;99.90;;;;;;5121266;27;20033;-84
2023/01/15 07:04:01;;;;;;;6.72;1.10;;;5.30;99.90;;;;;;5052334;27;20040;-82
2023/01/15 07:06:27;;;;;;;4.28;0.82;;;5.40;99.90;;;;;;5051686;28;20041;-83
2023/01/15 07:08:53;;;;;;;6.22;0.90;;;5.40;99.90;;;;;;5052099;28;20040;-78
2023/01/15 07:11:18;;;;;;;4.90;0.75;;;5.80;99.90;;;;;;5122088;27;20056;-82
2023/01/15 07:13:44;;;;;;;5.88;0.93;;;5.40;99.90;;;;;;5052006;28;20052;-80
2023/01/15 07:16:25;;;;;;;5.53;1.05;;;5.20;99.90;;;;;;5051784;28;20037;-82
2023/01/15 07:18:53;;;;;;;9.77;0.77;;;5.70;99.90;;;;;;5112185;27;20114;-81
2023/01/15 07:21:18;;;;;;;5.60;1.17;;;5.30;99.90;;;;;;5120715;27;20080;-81
2023/01/15 07:23:44;;;;;;;5.47;0.70;;;5.40;99.90;;;;;;5120606;27;20117;-81
2023/01/15 07:26:10;;;;;;;7.82;0.95;;;5.30;99.90;;;;;;5051859;27;20478;-82
2023/01/15 07:28:35;;;;;;;7.53;0.93;;;5.40;99.90;;;;;;5121110;27;20049;-81
2023/01/15 07:31:01;;;;;;;3.70;1.00;;;5.50;99.90;;;;;;5122011;27;20089;-82
2023/01/15 07:33:27;;;;;;;3.63;0.60;;;5.30;99.90;;;;;;5104122;28;20041;-83
2023/01/15 07:35:52;;;;;;;5.90;0.80;;;5.20;99.90;;;;;;5051857;28;20051;-83
2023/01/15 07:38:18;;;;;;;5.85;0.90;;;5.30;99.90;;;;;;5103331;28;20095;-81
2023/01/15 07:40:44;;;;;;;4.50;1.10;;;5.20;99.90;;;;;;5051317;28;20041;-82
2023/01/15 07:51:22;;;;;;;4.55;0.60;;;5.60;99.90;;;;;;5051417;27;20044;-82
2023/01/15 07:53:48;;;;;;;8.60;0.70;;;5.30;99.90;;;;;;5103332;28;20052;-82
2023/01/15 07:56:14;;;;;;;8.77;0.70;;;5.20;99.90;;;;;;5103378;28;20055;-82
2023/01/15 07:58:40;;;;;;;5.90;0.63;;;5.50;99.90;;;;;;5052658;28;20039;-82
2023/01/15 08:01:06;;;;;;;7.38;1.15;;;5.30;99.90;;;;;;5121448;27;20037;-81
2023/01/15 08:03:31;;;;;;;5.65;0.70;;;5.30;99.90;;;;;;5086581;28;20037;-80
2023/01/15 08:05:57;;;;;;;4.57;0.70;;;5.10;99.90;;;;;;5051405;28;20041;-83
2023/01/15 08:08:23;;;;;;;5.25;0.63;;;5.30;99.90;;;;;;5120439;27;20045;-81
2023/01/15 08:16:17;;;;;;;3.67;0.93;;;5.30;99.90;;;;;;5121054;27;20131;-80
2023/01/15 08:18:45;;;;;;;3.95;0.50;;;5.30;99.90;;;;;;5049844;28;20131;-81
2023/01/15 08:21:15;;;;;;;2.78;0.50;;;5.20;99.90;;;;;;5120163;27;20462;-70
2023/01/15 08:23:42;;;;;;;2.83;0.70;;;5.30;99.90;;;;;;5050793;28;20120;-79
2023/01/15 08:26:08;;;;;;;4.10;0.40;;;5.30;99.90;;;;;;5050780;28;20363;-80
2023/01/15 08:28:33;;;;;;;5.43;0.80;;;5.20;99.90;;;;;;5050745;28;20048;-78
2023/01/15 08:30:59;;;;;;;6.85;0.63;;;6.20;99.90;;;;;;5051155;27;20045;-82
2023/01/15 08:33:25;;;;;;;3.88;0.50;;;5.20;99.90;;;;;;5102256;28;20557;-81
2023/01/15 08:35:50;;;;;;;5.18;0.50;;;5.20;99.90;;;;;;5051637;28;20048;-80
2023/01/15 08:38:16;;;;;;;5.57;1.20;;;5.20;99.90;;;;;;5102543;28;20489;-83
2023/01/15 08:40:57;;;;;;;3.38;0.68;;;5.20;99.90;;;;;;5051002;28;20037;-83
2023/01/15 08:43:27;;;;;;;9.15;0.70;;;5.60;99.90;;;;;;5051401;28;20343;-80
2023/01/15 08:45:58;;;;;;;4.43;0.80;;;5.30;99.90;;;;;;5050195;28;20037;-77
2023/01/15 08:48:26;;;;;;;2.95;0.63;;;5.70;99.90;;;;;;5050259;28;20061;-81
2023/01/15 08:50:52;;;;;;;2.80;0.38;;;5.30;99.90;;;;;;5117945;28;20041;-84
2023/01/15 08:53:18;;;;;;;3.40;1.00;;;5.40;99.90;;;;;;5119194;28;20044;-76
2023/01/15 08:55:45;;;;;;;3.85;0.45;;;5.40;99.90;;;;;;5118786;28;20097;-80
2023/01/15 08:58:10;;;;;;;3.05;0.47;;;5.30;99.90;;;;;;5119114;28;20041;-78
2023/01/15 09:00:36;;;;;;;3.75;0.60;;;5.30;99.90;;;;;;5050452;27;20048;-82
2023/01/15 09:03:02;;;;;;;5.50;0.50;;;5.60;99.90;;;;;;5050930;28;20091;-76
2023/01/15 09:05:28;;;;;;;5.90;1.60;;;5.20;99.90;;;;;;5050285;28;20102;-73
2023/01/15 09:07:54;;;;;;;6.32;0.50;;;5.10;99.90;;;;;;5050304;28;20076;-76
2023/01/15 09:10:21;;;;;;;25.52;9.13;;;5.50;99.90;;;;;;5050479;27;20037;-78
2023/01/15 09:12:46;;;;;;;4.50;0.60;;;5.20;99.90;;;;;;5050295;28;20094;-77
2023/01/15 09:15:12;;;;;;;3.65;0.50;;;5.10;99.90;;;;;;5050385;27;20045;-76
2023/01/15 09:17:39;;;;;;;5.78;0.60;;;5.00;99.90;;;;;;5050323;28;20048;-73
2023/01/15 09:20:10;;;;;;;2.97;0.60;;;4.80;99.90;;;;;;5050476;28;20100;-76
2023/01/15 09:22:36;;;;;;;5.07;0.60;;;4.80;99.90;;;;;;5050278;28;20045;-76
2023/01/15 09:25:01;;;;;;;3.10;0.57;;;4.80;99.90;;;;;;5118862;28;20124;-76
2023/01/15 09:27:28;;;;;;;2.47;0.60;;;4.90;99.90;;;;;;5050675;28;20105;-75
2023/01/15 09:29:54;;;;;;;8.10;0.77;;;5.30;99.90;;;;;;5120549;27;20400;-76
2023/01/15 09:32:21;;;;;;;6.88;0.75;;;5.30;99.90;;;;;;5122798;27;20045;-77
2023/01/15 09:34:46;;;;;;;6.68;0.60;;;4.90;99.90;;;;;;5054358;28;20053;-77
2023/01/15 09:37:12;;;;;;;4.63;1.02;;;4.90;99.90;;;;;;5122720;27;20473;-75
2023/01/15 09:39:39;;;;;;;4.90;1.00;;;4.90;99.90;;;;;;5089046;28;20051;-77
2023/01/15 09:42:19;;;;;;;5.07;0.88;;;4.90;99.90;;;;;;5053373;28;20045;-77
2023/01/15 09:45:22;;;;;;;3.83;0.60;;;4.90;99.90;;;;;;5053376;28;20044;-77
2023/01/15 09:47:58;;;;;;;8.77;1.20;;;4.80;99.90;;;;;;5053926;28;20041;-75
2023/01/15 09:50:45;;;;;;;5.25;0.70;;;5.00;99.90;;;;;;5053838;28;20116;-75
2023/01/15 09:53:30;;;;;;;2.72;0.60;;;4.70;99.90;;;;;;5123054;27;20045;-75
2023/01/15 09:55:58;;;;;;;5.43;0.63;;;4.60;99.90;;;;;;5053944;28;20045;-75
2023/01/15 09:58:34;;;;;;;2.90;0.60;;;5.20;99.90;;;;;;5053189;28;20063;-75
2023/01/15 10:01:00;;;;;;;6.38;0.82;;;4.60;99.90;;;;;;5053677;28;20116;-74
2023/01/15 10:03:42;;;;;;;4.57;0.65;;;4.80;99.90;;;;;;5053608;28;20402;-76
2023/01/15 10:06:18;;;;;;;3.97;0.50;;;4.60;99.90;;;;;;5123433;27;20418;-72
2023/01/15 10:08:47;;;;;;;4.32;0.60;;;4.70;99.90;;;;;;5122155;27;20087;-77
2023/01/15 10:11:16;;;;;;;5.93;0.60;;;4.70;99.90;;;;;;5053091;27;20037;-77
2023/01/15 10:13:59;;;;;;;3.50;0.82;;;5.00;99.90;;;;;;5052953;28;20049;-74
2023/01/15 10:16:27;;;;;;;3.33;0.70;;;4.80;99.90;;;;;;5052890;28;20132;-76
2023/01/15 10:18:56;;;;;;;6.15;0.55;;;4.90;99.90;;;;;;5053001;27;20041;-75
2023/01/15 10:21:34;;;;;;;3.67;0.75;;;5.30;99.90;;;;;;5122016;27;20037;-77
2023/01/15 10:24:13;;;;;;;3.08;0.75;;;5.00;99.90;;;;;;5122822;27;20076;-76
2023/01/15 10:26:54;;;;;;;5.75;1.02;;;5.00;99.90;;;;;;5052717;28;20069;-75
2023/01/15 10:29:33;;;;;;;8.23;0.68;;;5.30;99.90;;;;;;5122234;27;20425;-75
2023/01/15 10:32:10;;;;;;;3.70;1.05;;;5.10;99.90;;;;;;5121894;27;20049;-77
2023/01/15 10:35:02;;;;;;;2.70;0.70;;;5.20;99.90;;;;;;5121617;27;20049;-75
2023/01/15 10:37:50;;;;;;;3.33;0.50;;;5.20;99.90;;;;;;5052433;28;20053;-75
2023/01/15 10:40:57;;;;;;;6.22;0.60;;;5.20;99.90;;;;;;5053129;28;20049;-77
2023/01/15 10:43:28;;;;;;;6.68;0.50;;;5.30;99.90;;;;;;5062349;28;20052;-75
2023/01/15 10:46:08;;;;;;;5.07;0.70;;;5.30;99.90;;;;;;5052428;28;20120;-76
2023/01/15 10:48:50;;;;;;;3.72;0.63;;;5.40;99.90;;;;;;5052417;28;20043;-75
2023/01/15 10:51:20;;;;;;;1.85;0.40;;;6.10;99.90;;;;;;5052406;28;20049;-78
2023/01/15 10:53:50;;;;;;;4.07;0.68;;;5.60;99.90;;;;;;5052199;28;20037;-75
2023/01/15 10:56:24;;;;;;;6.28;0.88;;;5.50;99.90;;;;;;5052505;27;20134;-77
2023/01/15 10:59:12;;;;;;;5.18;0.70;;;5.50;99.90;;;;;;5052883;28;20041;-72
2023/01/15 11:01:39;;;;;;;4.57;0.60;;;5.60;99.90;;;;;;5051915;28;20044;-72
2023/01/15 11:04:07;;;;;;;4.72;1.40;;;5.50;99.90;;;;;;5052100;28;20045;-74
2023/01/15 11:06:33;;;;;;;7.00;1.30;;;5.90;99.90;;;;;;5052609;28;20041;-74
2023/01/15 11:08:59;;;;;;;6.50;0.63;;;5.50;99.90;;;;;;5052728;28;20373;-72
2023/01/15 11:20:00;;;;;;;2.75;0.65;;;5.70;99.90;;;;;;5052782;27;20126;-77
2023/01/15 11:22:28;;;;;;;5.18;0.60;;;5.70;99.90;;;;;;5121109;27;20049;-81
2023/01/15 11:24:57;;;;;;;3.53;0.70;;;5.70;99.90;;;;;;5051770;28;20074;-78
2023/01/15 11:27:29;;;;;;;4.82;0.60;;;5.80;99.90;;;;;;5051720;28;20037;-75
2023/01/15 11:29:57;;;;;;;5.70;0.60;;;6.00;99.90;;;;;;5051680;28;20044;-76
2023/01/15 11:32:35;;;;;;;3.92;0.63;;;5.90;99.90;;;;;;5051609;28;20033;-76
2023/01/15 11:35:03;;;;;;;3.38;0.55;;;5.70;99.90;;;;;;5051293;28;20505;-78
2023/01/15 11:37:29;;;;;;;3.78;0.63;;;5.90;99.90;;;;;;5051501;28;20136;-78
2023/01/15 11:40:05;;;;;;;5.78;0.60;;;5.60;99.90;;;;;;5120281;27;20037;-77
2023/01/15 11:51:14;;;;;;;6.15;0.90;;;6.20;99.90;;;;;;5052086;27;20097;-79
2023/01/15 11:53:45;;;;;;;7.93;0.80;;;6.10;99.90;;;;;;5052085;28;20055;-79
2023/01/15 11:56:30;;;;;;;7.20;0.80;;;6.40;99.90;;;;;;5052138;28;20362;-80
2023/01/15 11:59:00;;;;;;;4.55;0.77;;;6.10;99.90;;;;;;5051865;28;20045;-74
2023/01/15 12:01:45;;;;;;;6.03;0.85;;;6.10;99.90;;;;;;5051031;28;20123;-76
2023/01/15 12:04:38;;;;;;;6.13;0.95;;;6.10;99.90;;;;;;5051072;28;20466;-74
2023/01/15 12:07:11;;;;;;;7.75;1.17;;;6.10;99.90;;;;;;5053056;28;20084;-75
2023/01/15 12:10:01;;;;;;;5.30;1.00;;;6.30;99.90;;;;;;5051274;28;20106;-76
2023/01/15 12:12:38;;;;;;;3.28;0.68;;;6.10;99.90;;;;;;5120979;27;20051;-75
2023/01/15 12:15:14;;;;;;;4.38;0.60;;;6.30;99.90;;;;;;5051859;27;20044;-72
2023/01/15 12:18:22;;;;;;;4.65;0.90;;;6.10;99.90;;;;;;5052896;28;20040;-75
2023/01/15 12:20:54;;;;;;;5.28;1.00;;;6.20;99.90;;;;;;5058662;27;20037;-75
2023/01/15 12:23:44;;;;;;;2.67;0.70;;;6.60;99.90;;;;;;5060440;28;20137;-75
2023/01/15 12:26:22;;;;;;;5.63;1.05;;;6.30;99.90;;;;;;5064396;28;20072;-76
2023/01/15 12:29:16;;;;;;;7.32;0.95;;;6.70;99.90;;;;;;5065573;28;20062;-81
2023/01/15 12:31:47;;;;;;;6.60;0.90;;;6.30;99.90;;;;;;5062587;28;20041;-75
2023/01/15 12:34:40;;;;;;;3.92;0.65;;;6.30;99.90;;;;;;5060869;28;20045;-73
2023/01/15 12:37:12;;;;;;;5.88;0.60;;;6.20;99.90;;;;;;5125638;27;20096;-73
2023/01/15 12:39:44;;;;;;;10.50;4.32;;;6.40;99.90;;;;;;5051987;28;20037;-73
2023/01/15 12:45:06;;;;;;;3.70;0.68;;;6.10;99.90;;;;;;5050913;27;20085;-72
2023/01/15 12:48:10;;;;;;;10.63;4.25;;;6.20;99.90;;;;;;5119717;28;20535;-71
2023/01/15 12:50:44;;;;;;;8.00;0.77;;;6.00;99.90;;;;;;5071289;28;20037;-77
2023/01/15 12:53:12;;;;;;;18.92;13.30;;;6.10;99.90;;;;;;5107269;28;20468;-73
2023/01/15 12:55:44;;;;;;;19.67;6.07;;;6.20;99.90;;;;;;5049795;28;20214;-68
2023/01/15 12:58:22;;;;;;;10.55;2.60;;;6.20;99.90;;;;;;5120063;28;20052;-75
2023/01/15 13:00:49;;;;;;;47.13;19.58;;;6.30;99.90;;;;;;5120102;28;20092;-77
2023/01/15 13:03:27;;;;;;;5.03;0.90;;;6.10;99.90;;;;;;5050656;28;20129;-69
2023/01/15 13:05:59;;;;;;;6.40;2.35;;;6.00;99.90;;;;;;5054325;28;20041;-74
2023/01/15 13:08:37;;;;;;;8.97;7.40;;;6.20;99.90;;;;;;5054615;28;20033;-85
2023/01/15 13:11:03;;;;;;;79.70;41.88;;;5.90;99.90;;;;;;5124578;27;20097;-75
2023/01/15 13:13:36;;;;;;;35.70;17.75;;;5.90;99.90;;;;;;5130296;27;20083;-79
2023/01/15 13:16:50;;;;;;;8.27;1.63;;;6.10;99.90;;;;;;5131762;27;20051;-74
2023/01/15 13:19:27;;;;;;;23.05;9.70;;;5.80;99.90;;;;;;5040172;28;20056;-77
2023/01/15 13:21:57;;;;;;;39.13;24.27;;;5.50;99.90;;;;;;5054138;28;20044;-73
2023/01/15 13:24:52;;;;;;;23.25;8.27;;;5.50;99.90;;;;;;5053549;28;20041;-76
2023/01/15 13:27:47;;;;;;;3.30;0.40;;;5.20;99.90;;;;;;5053614;28;20065;-77
2023/01/15 13:30:51;;;;;;;8.30;3.95;;;5.00;99.90;;;;;;5054494;28;20093;-82
2023/01/15 13:33:37;;;;;;;2.72;0.40;;;4.90;99.90;;;;;;5123279;27;20045;-78
2023/01/15 13:36:19;;;;;;;4.82;2.47;;;4.60;99.90;;;;;;5053314;28;20049;-76
2023/01/15 13:38:49;;;;;;;2.88;0.40;;;4.60;99.90;;;;;;5053932;28;20048;-77
2023/01/15 13:44:33;;;;;;;7.78;5.15;;;5.10;99.90;;;;;;5055723;27;20059;-77
2023/01/15 13:47:09;;;;;;;3.47;1.90;;;4.60;99.90;;;;;;5055981;28;20041;-83
2023/01/15 13:49:39;;;;;;;3.05;0.30;;;4.90;99.90;;;;;;5053598;28;20163;-76
2023/01/15 13:52:06;;;;;;;2.80;0.40;;;4.70;99.90;;;;;;5053401;27;20117;-74
2023/01/15 13:54:39;;;;;;;53.10;22.27;;;4.90;99.90;;;;;;5052750;28;20039;-76
2023/01/15 13:57:35;;;;;;;16.92;9.13;;;4.90;99.90;;;;;;5053640;28;20041;-72
2023/01/15 14:00:03;;;;;;;18.42;14.43;;;4.70;99.90;;;;;;5054229;28;20049;-74
2023/01/15 14:02:31;;;;;;;4.22;3.75;;;4.60;99.90;;;;;;5053080;28;20040;-77
2023/01/15 14:04:57;;;;;;;1.95;0.25;;;4.80;99.90;;;;;;5052990;28;20049;-83
2023/01/15 14:07:35;;;;;;;1.10;0.30;;;4.80;99.90;;;;;;5053396;28;20048;-75
2023/01/15 14:10:16;;;;;;;3.05;0.30;;;4.90;99.90;;;;;;5053652;27;20551;-77
2023/01/15 14:12:55;;;;;;;2.28;0.50;;;4.90;99.90;;;;;;5122084;27;20045;-78
2023/01/15 14:16:02;;;;;;;2.63;0.32;;;4.90;99.90;;;;;;5052950;28;20052;-75